createdAt,value
2022-12-16T00:00:42.000Z,0
2022-12-16T00:01:57.000Z,0
2022-12-16T00:03:12.000Z,0
2022-12-16T00:04:28.000Z,0
2022-12-16T00:05:44.000Z,0
2022-12-16T00:07:01.000Z,0
2022-12-16T00:08:17.000Z,0
2022-12-16T00:09:33.000Z,0
2022-12-16T00:10:49.000Z,0
2022-12-16T00:12:04.000Z,0
2022-12-16T00:13:21.000Z,0
2022-12-16T00:14:37.000Z,0
2022-12-16T00:15:53.000Z,0
2022-12-16T00:18:25.000Z,0
2022-12-16T00:19:42.000Z,0
2022-12-16T00:20:58.000Z,0
2022-12-16T00:22:14.000Z,0
2022-12-16T00:23:30.000Z,0
2022-12-16T00:24:46.000Z,0
2022-12-16T00:26:03.000Z,0
2022-12-16T00:27:19.000Z,0
2022-12-16T00:28:34.000Z,0
2022-12-16T00:29:49.000Z,0
2022-12-16T00:31:05.000Z,0
2022-12-16T00:32:21.000Z,0
2022-12-16T00:33:37.000Z,0
2022-12-16T00:34:53.000Z,0
2022-12-16T00:36:09.000Z,0
2022-12-16T00:37:25.000Z,0
2022-12-16T00:38:42.000Z,0
2022-12-16T00:41:14.000Z,0
2022-12-16T00:42:30.000Z,0
2022-12-16T00:43:46.000Z,0
2022-12-16T00:45:03.000Z,0
2022-12-16T00:46:19.000Z,0
2022-12-16T00:47:35.000Z,0
2022-12-16T00:48:50.000Z,0
2022-12-16T00:50:06.000Z,0
2022-12-16T00:51:23.000Z,0
2022-12-16T00:52:39.000Z,0
2022-12-16T00:53:55.000Z,0
2022-12-16T00:55:11.000Z,0
2022-12-16T00:56:27.000Z,0
2022-12-16T00:57:43.000Z,0
2022-12-16T00:58:58.000Z,0
2022-12-16T01:00:13.000Z,0
2022-12-16T01:01:28.000Z,0
2022-12-16T01:02:43.000Z,0
2022-12-16T01:03:59.000Z,0
2022-12-16T01:05:15.000Z,0
2022-12-16T01:06:31.000Z,0
2022-12-16T01:07:47.000Z,0
2022-12-16T01:09:03.000Z,0
2022-12-16T01:10:20.000Z,0
2022-12-16T01:11:36.000Z,0
2022-12-16T01:12:52.000Z,0
2022-12-16T01:14:08.000Z,0
2022-12-16T01:15:24.000Z,0
2022-12-16T01:16:41.000Z,0
2022-12-16T01:17:57.000Z,0
2022-12-16T01:19:13.000Z,0
2022-12-16T01:21:44.000Z,0
2022-12-16T01:23:01.000Z,0
2022-12-16T01:24:17.000Z,0
2022-12-16T01:25:33.000Z,0
2022-12-16T01:26:49.000Z,0
2022-12-16T01:28:05.000Z,0
2022-12-16T01:29:22.000Z,0
2022-12-16T01:30:37.000Z,0
2022-12-16T01:31:52.000Z,0
2022-12-16T01:33:07.000Z,0
2022-12-16T01:34:22.000Z,0
2022-12-16T01:35:39.000Z,0
2022-12-16T01:36:55.000Z,0
2022-12-16T01:38:11.000Z,0
2022-12-16T01:39:27.000Z,0
2022-12-16T01:40:43.000Z,0
2022-12-16T01:42:00.000Z,0
2022-12-16T01:43:16.000Z,0
2022-12-16T01:44:32.000Z,0
2022-12-16T01:47:04.000Z,0
2022-12-16T01:48:21.000Z,0
2022-12-16T01:49:37.000Z,0
2022-12-16T01:50:52.000Z,0
2022-12-16T01:52:08.000Z,0
2022-12-16T01:53:24.000Z,0
2022-12-16T01:54:41.000Z,0
2022-12-16T01:55:57.000Z,0
2022-12-16T01:57:13.000Z,0
2022-12-16T01:58:29.000Z,0
2022-12-16T01:59:45.000Z,0
2022-12-16T02:01:01.000Z,0
2022-12-16T02:02:16.000Z,0
2022-12-16T02:03:31.000Z,0
2022-12-16T02:04:46.000Z,0
2022-12-16T02:06:02.000Z,0
2022-12-16T02:07:19.000Z,0
2022-12-16T02:08:35.000Z,0
2022-12-16T02:09:51.000Z,0
2022-12-16T02:11:07.000Z,0
2022-12-16T02:12:23.000Z,0
2022-12-16T02:13:40.000Z,0
2022-12-16T02:14:56.000Z,0
2022-12-16T02:16:12.000Z,0
2022-12-16T02:17:28.000Z,0
2022-12-16T02:18:44.000Z,0
2022-12-16T02:20:01.000Z,0
2022-12-16T02:21:16.000Z,0
2022-12-16T02:22:32.000Z,0
2022-12-16T02:25:04.000Z,0
2022-12-16T02:26:20.000Z,0
2022-12-16T02:27:37.000Z,0
2022-12-16T02:28:53.000Z,0
2022-12-16T02:30:09.000Z,0
2022-12-16T02:31:24.000Z,0
2022-12-16T02:32:40.000Z,0
2022-12-16T02:33:55.000Z,0
2022-12-16T02:35:10.000Z,0
2022-12-16T02:36:26.000Z,0
2022-12-16T02:37:42.000Z,0
2022-12-16T02:38:59.000Z,0
2022-12-16T02:40:15.000Z,0
2022-12-16T02:41:31.000Z,0
2022-12-16T02:42:47.000Z,0
2022-12-16T02:44:03.000Z,0
2022-12-16T02:45:19.000Z,0
2022-12-16T02:46:36.000Z,0
2022-12-16T02:47:52.000Z,0
2022-12-16T02:49:08.000Z,0
2022-12-16T02:50:24.000Z,0
2022-12-16T02:51:40.000Z,0
2022-12-16T02:52:56.000Z,0
2022-12-16T02:54:12.000Z,0
2022-12-16T02:55:28.000Z,0
2022-12-16T02:56:44.000Z,0
2022-12-16T02:58:00.000Z,0
2022-12-16T02:59:17.000Z,0
2022-12-16T03:00:32.000Z,0
2022-12-16T03:01:47.000Z,0
2022-12-16T03:03:03.000Z,0
2022-12-16T03:04:18.000Z,0
2022-12-16T03:05:34.000Z,0
2022-12-16T03:06:50.000Z,0
2022-12-16T03:08:06.000Z,0
2022-12-16T03:09:22.000Z,0
2022-12-16T03:10:38.000Z,0
2022-12-16T03:11:55.000Z,0
2022-12-16T03:13:11.000Z,0
2022-12-16T03:14:27.000Z,0
2022-12-16T03:15:43.000Z,0
2022-12-16T03:16:59.000Z,0
2022-12-16T03:18:16.000Z,0
2022-12-16T03:19:32.000Z,0
2022-12-16T03:20:48.000Z,0
2022-12-16T03:22:03.000Z,0
2022-12-16T03:23:19.000Z,0
2022-12-16T03:24:36.000Z,0
2022-12-16T03:25:52.000Z,0
2022-12-16T03:27:08.000Z,0
2022-12-16T03:28:24.000Z,0
2022-12-16T03:29:40.000Z,0
2022-12-16T03:30:57.000Z,0
2022-12-16T03:32:12.000Z,0
2022-12-16T03:33:27.000Z,0
2022-12-16T03:34:42.000Z,0
2022-12-16T03:35:57.000Z,0
2022-12-16T03:37:14.000Z,0
2022-12-16T03:38:30.000Z,0
2022-12-16T03:39:46.000Z,0
2022-12-16T03:41:02.000Z,0
2022-12-16T03:42:18.000Z,0
2022-12-16T03:43:35.000Z,0
2022-12-16T03:44:51.000Z,0
2022-12-16T03:46:07.000Z,0
2022-12-16T03:47:23.000Z,0
2022-12-16T03:48:39.000Z,0
2022-12-16T03:49:56.000Z,0
2022-12-16T03:51:12.000Z,0
2022-12-16T03:52:28.000Z,0
2022-12-16T03:53:44.000Z,0
2022-12-16T03:55:01.000Z,0
2022-12-16T03:56:17.000Z,0
2022-12-16T03:57:33.000Z,0
2022-12-16T03:58:49.000Z,0
2022-12-16T04:00:05.000Z,0
2022-12-16T04:01:20.000Z,0
2022-12-16T04:02:36.000Z,0
2022-12-16T04:03:51.000Z,0
2022-12-16T04:06:22.000Z,0
2022-12-16T04:07:39.000Z,0
2022-12-16T04:08:55.000Z,0
2022-12-16T04:10:11.000Z,0
2022-12-16T04:11:27.000Z,0
2022-12-16T04:12:43.000Z,0
2022-12-16T04:14:00.000Z,0
2022-12-16T04:15:16.000Z,0
2022-12-16T04:16:32.000Z,0
2022-12-16T04:19:04.000Z,0
2022-12-16T04:20:20.000Z,0
2022-12-16T04:21:36.000Z,0
2022-12-16T04:22:52.000Z,0
2022-12-16T04:24:08.000Z,0
2022-12-16T04:25:24.000Z,0
2022-12-16T04:26:39.000Z,0
2022-12-16T04:27:56.000Z,0
2022-12-16T04:29:12.000Z,0
2022-12-16T04:31:44.000Z,0
2022-12-16T04:33:00.000Z,0
2022-12-16T04:34:16.000Z,0
2022-12-16T04:35:31.000Z,0
2022-12-16T04:36:46.000Z,0
2022-12-16T04:38:01.000Z,0
2022-12-16T04:39:18.000Z,0
2022-12-16T04:40:34.000Z,0
2022-12-16T04:41:50.000Z,0
2022-12-16T04:44:22.000Z,0
2022-12-16T04:45:38.000Z,0
2022-12-16T04:46:55.000Z,0
2022-12-16T04:48:11.000Z,0
2022-12-16T04:49:27.000Z,0
2022-12-16T04:50:43.000Z,0
2022-12-16T04:51:59.000Z,0
2022-12-16T04:53:16.000Z,0
2022-12-16T04:54:31.000Z,0
2022-12-16T04:57:03.000Z,0
2022-12-16T04:58:18.000Z,0
2022-12-16T04:59:34.000Z,0
2022-12-16T05:00:50.000Z,0
2022-12-16T05:02:06.000Z,0
2022-12-16T05:03:22.000Z,0
2022-12-16T05:04:38.000Z,0
2022-12-16T05:05:55.000Z,0
2022-12-16T05:07:11.000Z,0
2022-12-16T05:08:27.000Z,0
2022-12-16T05:09:43.000Z,0
2022-12-16T05:10:59.000Z,0
2022-12-16T05:12:15.000Z,0
2022-12-16T05:13:30.000Z,0
2022-12-16T05:14:46.000Z,0
2022-12-16T05:16:02.000Z,0
2022-12-16T05:17:18.000Z,0
2022-12-16T05:18:35.000Z,0
2022-12-16T05:19:51.000Z,0
2022-12-16T05:21:07.000Z,0
2022-12-16T05:22:23.713Z,0
2022-12-16T05:23:39.000Z,0
2022-12-16T05:24:56.000Z,0
2022-12-16T05:26:12.000Z,0
2022-12-16T05:27:28.000Z,0
2022-12-16T05:28:44.000Z,0
2022-12-16T05:29:59.000Z,0
2022-12-16T05:31:16.000Z,0
2022-12-16T05:32:32.000Z,0
2022-12-16T05:33:48.000Z,0
2022-12-16T05:35:04.000Z,0
2022-12-16T05:36:20.000Z,0
2022-12-16T05:37:37.000Z,0
2022-12-16T05:38:52.000Z,0
2022-12-16T05:40:07.000Z,0
2022-12-16T05:41:23.000Z,0
2022-12-16T05:42:38.000Z,0
2022-12-16T05:43:54.000Z,0
2022-12-16T05:45:10.000Z,0
2022-12-16T05:47:42.000Z,0
2022-12-16T05:48:58.000Z,0
2022-12-16T05:50:15.000Z,0
2022-12-16T05:51:31.000Z,0
2022-12-16T05:52:47.000Z,0
2022-12-16T05:54:03.000Z,0
2022-12-16T05:55:19.000Z,0
2022-12-16T05:56:36.000Z,0
2022-12-16T05:57:52.000Z,0
2022-12-16T06:00:24.000Z,0
2022-12-16T06:01:39.000Z,0
2022-12-16T06:02:55.000Z,0
2022-12-16T06:04:11.000Z,0
2022-12-16T06:05:27.000Z,0
2022-12-16T06:06:43.000Z,0
2022-12-16T06:07:59.000Z,0
2022-12-16T06:09:16.000Z,0
2022-12-16T06:10:32.000Z,0
2022-12-16T06:13:04.000Z,0
2022-12-16T06:14:20.000Z,0
2022-12-16T06:15:37.000Z,0
2022-12-16T06:16:53.000Z,0
2022-12-16T06:18:09.000Z,0
2022-12-16T06:19:24.000Z,0
2022-12-16T06:20:40.000Z,0
2022-12-16T06:21:57.000Z,0
2022-12-16T06:23:13.000Z,0
2022-12-16T06:24:29.000Z,0
2022-12-16T06:25:45.000Z,0
2022-12-16T06:27:01.000Z,0
2022-12-16T06:28:18.000Z,0
2022-12-16T06:29:33.000Z,0
2022-12-16T06:30:48.000Z,0
2022-12-16T06:32:03.000Z,0
2022-12-16T06:33:18.000Z,0
2022-12-16T06:34:35.000Z,0
2022-12-16T06:35:51.000Z,0
2022-12-16T06:37:07.000Z,0
2022-12-16T06:38:23.000Z,0
2022-12-16T06:39:39.000Z,0
2022-12-16T06:40:56.000Z,0
2022-12-16T06:42:12.000Z,0
2022-12-16T06:43:28.000Z,0
2022-12-16T06:44:44.000Z,0
2022-12-16T06:46:00.000Z,4
2022-12-16T06:47:17.000Z,4
2022-12-16T06:48:33.000Z,4
2022-12-16T06:49:48.000Z,4
2022-12-16T06:51:04.000Z,0
2022-12-16T06:52:20.000Z,4
2022-12-16T06:53:37.000Z,4
2022-12-16T06:54:53.000Z,4
2022-12-16T06:56:09.000Z,8
2022-12-16T06:57:25.000Z,8
2022-12-16T06:58:40.000Z,8
2022-12-16T06:59:56.000Z,12
2022-12-16T07:01:11.000Z,12
2022-12-16T07:03:42.000Z,20
2022-12-16T07:04:58.000Z,24
2022-12-16T07:06:15.000Z,28
2022-12-16T07:07:31.000Z,36
2022-12-16T07:08:47.000Z,44
2022-12-16T07:10:03.000Z,52
2022-12-16T07:11:19.000Z,64
2022-12-16T07:12:36.000Z,72
2022-12-16T07:13:52.000Z,84
2022-12-16T07:15:08.000Z,100
2022-12-16T07:16:24.000Z,112
2022-12-16T07:17:40.000Z,128
2022-12-16T07:18:56.000Z,144
2022-12-16T07:20:12.000Z,164
2022-12-16T07:21:28.000Z,180
2022-12-16T07:22:44.000Z,204
2022-12-16T07:24:00.000Z,232
2022-12-16T07:25:17.000Z,256
2022-12-16T07:26:33.000Z,280
2022-12-16T07:27:49.000Z,308
2022-12-16T07:29:05.000Z,340
2022-12-16T07:30:20.000Z,360
2022-12-16T07:31:36.000Z,396
2022-12-16T07:32:51.000Z,428
2022-12-16T07:34:06.000Z,464
2022-12-16T07:35:22.000Z,500
2022-12-16T07:36:38.000Z,548
2022-12-16T07:37:55.000Z,600
2022-12-16T07:39:11.000Z,656
2022-12-16T07:40:27.000Z,720
2022-12-16T07:41:43.000Z,780
2022-12-16T07:42:59.000Z,848
2022-12-16T07:44:16.000Z,924
2022-12-16T07:45:32.000Z,992
2022-12-16T07:46:48.000Z,1072
2022-12-16T07:48:04.000Z,1152
2022-12-16T07:49:20.000Z,1236
2022-12-16T07:50:36.000Z,1320
2022-12-16T07:51:52.000Z,1408
2022-12-16T07:54:24.000Z,1620
2022-12-16T07:55:40.000Z,1728
2022-12-16T07:56:57.000Z,1836
2022-12-16T07:58:13.000Z,1940
2022-12-16T07:59:29.000Z,2048
2022-12-16T08:00:44.000Z,2136
2022-12-16T08:01:59.000Z,2204
2022-12-16T08:03:15.000Z,2260
2022-12-16T08:04:30.000Z,2340
2022-12-16T08:07:02.000Z,2536
2022-12-16T08:08:18.000Z,2644
2022-12-16T08:09:35.000Z,2740
2022-12-16T08:10:51.000Z,2880
2022-12-16T08:12:07.000Z,2980
2022-12-16T08:13:23.000Z,3056
2022-12-16T08:15:56.000Z,3160
2022-12-16T08:17:12.000Z,3216
2022-12-16T08:19:44.000Z,3380
2022-12-16T08:20:59.000Z,3464
2022-12-16T08:22:15.000Z,3592
2022-12-16T08:23:31.000Z,3696
2022-12-16T08:24:47.000Z,3804
2022-12-16T08:26:03.000Z,3976
2022-12-16T08:27:19.000Z,4176
2022-12-16T08:29:52.000Z,4540
2022-12-16T08:32:24.000Z,4776
2022-12-16T08:33:40.000Z,4920
2022-12-16T08:34:57.000Z,4976
2022-12-16T08:36:13.000Z,5068
2022-12-16T08:37:28.000Z,5072
2022-12-16T08:38:43.000Z,4912
2022-12-16T08:39:59.000Z,4524
2022-12-16T08:41:15.000Z,3904
2022-12-16T08:42:31.000Z,3468
2022-12-16T08:45:03.000Z,3840
2022-12-16T08:46:19.000Z,4268
2022-12-16T08:47:36.000Z,4808
2022-12-16T08:48:52.000Z,4864
2022-12-16T08:50:08.000Z,5500
2022-12-16T08:51:24.000Z,6432
2022-12-16T08:52:40.000Z,7464
2022-12-16T08:53:57.000Z,9352
2022-12-16T08:55:13.000Z,9980
2022-12-16T08:57:45.000Z,6200
2022-12-16T08:59:00.000Z,5956
2022-12-16T09:00:17.000Z,5760
2022-12-16T09:01:33.000Z,5584
2022-12-16T09:02:49.000Z,5300
2022-12-16T09:05:21.000Z,4748
2022-12-16T09:06:38.000Z,4536
2022-12-16T09:07:53.000Z,4408
2022-12-16T09:09:08.000Z,4304
2022-12-16T09:10:24.000Z,4136
2022-12-16T09:11:40.000Z,4052
2022-12-16T09:12:56.000Z,4044
2022-12-16T09:14:11.000Z,4060
2022-12-16T09:15:27.000Z,4056
2022-12-16T09:16:43.000Z,4064
2022-12-16T09:17:59.000Z,3792
2022-12-16T09:19:16.000Z,4040
2022-12-16T09:20:32.000Z,4032
2022-12-16T09:21:48.000Z,4052
2022-12-16T09:23:04.000Z,4152
2022-12-16T09:24:20.000Z,4148
2022-12-16T09:25:37.000Z,4068
2022-12-16T09:26:52.000Z,3940
2022-12-16T09:28:07.000Z,3652
2022-12-16T09:29:23.000Z,3436
2022-12-16T09:30:39.000Z,3420
2022-12-16T09:31:56.000Z,3492
2022-12-16T09:35:44.000Z,4096
2022-12-16T09:37:00.000Z,4432
2022-12-16T09:38:17.000Z,4572
2022-12-16T09:39:33.000Z,4856
2022-12-16T09:40:49.000Z,5232
2022-12-16T09:42:05.000Z,5440
2022-12-16T09:43:20.000Z,6108
2022-12-16T09:44:36.000Z,8188
2022-12-16T09:45:52.000Z,14272
2022-12-16T09:47:08.000Z,14624
2022-12-16T09:48:24.000Z,15520
2022-12-16T09:49:40.000Z,14912
2022-12-16T09:50:57.000Z,14784
2022-12-16T09:52:13.000Z,17024
2022-12-16T09:53:29.000Z,20640
2022-12-16T09:54:45.000Z,22752
2022-12-16T09:56:01.000Z,24160
2022-12-16T09:57:17.000Z,28224
2022-12-16T09:58:32.000Z,31680
2022-12-16T09:59:48.000Z,32672
2022-12-16T10:01:04.000Z,33472
2022-12-16T10:02:20.000Z,31968
2022-12-16T10:03:37.000Z,26816
2022-12-16T10:04:53.000Z,25760
2022-12-16T10:06:09.000Z,27200
2022-12-16T10:07:25.000Z,21504
2022-12-16T10:08:41.000Z,13832
2022-12-16T10:09:58.000Z,11356
2022-12-16T10:11:13.000Z,14912
2022-12-16T10:13:44.000Z,29056
2022-12-16T10:15:00.000Z,26656
2022-12-16T10:16:17.000Z,27104
2022-12-16T10:17:33.000Z,30816
2022-12-16T10:18:49.000Z,18624
2022-12-16T10:20:05.000Z,12000
2022-12-16T10:21:21.000Z,10124
2022-12-16T10:22:38.000Z,10608
2022-12-16T10:23:54.000Z,22240
2022-12-16T10:25:10.000Z,29728
2022-12-16T10:26:26.000Z,32544
2022-12-16T10:27:42.000Z,37536
2022-12-16T10:28:58.000Z,24992
2022-12-16T10:30:14.000Z,15144
2022-12-16T10:31:30.000Z,18624
2022-12-16T10:32:46.000Z,22400
2022-12-16T10:34:02.000Z,17120
2022-12-16T10:35:19.000Z,41408
2022-12-16T10:36:35.000Z,40992
2022-12-16T10:37:51.000Z,39584
2022-12-16T10:39:06.000Z,34112
2022-12-16T10:40:21.000Z,33632
2022-12-16T10:41:37.000Z,22720
2022-12-16T10:42:52.000Z,17856
2022-12-16T10:45:24.000Z,20512
2022-12-16T10:46:40.000Z,26656
2022-12-16T10:47:57.000Z,29184
2022-12-16T10:49:13.000Z,22880
2022-12-16T10:50:29.000Z,17920
2022-12-16T10:51:45.000Z,9824
2022-12-16T10:53:01.000Z,10744
2022-12-16T10:54:18.000Z,8420
2022-12-16T10:55:34.000Z,7928
2022-12-16T10:56:50.000Z,14380
2022-12-16T10:58:06.000Z,13952
2022-12-16T10:59:21.000Z,14528
2022-12-16T11:00:38.000Z,14384
2022-12-16T11:01:54.000Z,13792
2022-12-16T11:04:26.000Z,13608
2022-12-16T11:05:41.000Z,13496
2022-12-16T11:06:57.000Z,13400
2022-12-16T11:08:13.000Z,13228
2022-12-16T11:09:29.000Z,13068
2022-12-16T11:10:45.000Z,12940
2022-12-16T11:12:01.000Z,12800
2022-12-16T11:13:18.000Z,12660
2022-12-16T11:14:34.000Z,12468
2022-12-16T11:15:50.000Z,8756
2022-12-16T11:17:06.000Z,9944
2022-12-16T11:18:22.000Z,8040
2022-12-16T11:19:38.000Z,8572
2022-12-16T11:20:53.000Z,10676
2022-12-16T11:22:09.000Z,10716
2022-12-16T11:23:25.000Z,10728
2022-12-16T11:24:41.000Z,11120
2022-12-16T11:25:58.000Z,11012
2022-12-16T11:27:14.000Z,10884
2022-12-16T11:29:46.000Z,10748
2022-12-16T11:31:02.000Z,10624
2022-12-16T11:32:18.000Z,10536
2022-12-16T11:33:35.000Z,10376
2022-12-16T11:34:51.000Z,10200
2022-12-16T11:36:07.000Z,10024
2022-12-16T11:37:22.000Z,9868
2022-12-16T11:38:38.000Z,9704
2022-12-16T11:39:55.000Z,9504
2022-12-16T11:42:27.000Z,9076
2022-12-16T11:43:42.000Z,8288
2022-12-16T11:44:58.000Z,8556
2022-12-16T11:46:14.000Z,7696
2022-12-16T11:47:30.000Z,6764
2022-12-16T11:48:46.000Z,6172
2022-12-16T11:50:02.000Z,5704
2022-12-16T11:51:18.000Z,4160
2022-12-16T11:52:35.000Z,3744
2022-12-16T11:53:51.000Z,3616
2022-12-16T11:55:07.000Z,3836
2022-12-16T11:56:23.000Z,4140
2022-12-16T11:57:38.000Z,4700
2022-12-16T11:58:54.000Z,4836
2022-12-16T12:00:10.000Z,5060
2022-12-16T12:01:26.000Z,5176
2022-12-16T12:02:42.000Z,5352
2022-12-16T12:03:58.000Z,5280
2022-12-16T12:05:15.000Z,5148
2022-12-16T12:06:31.000Z,4940
2022-12-16T12:07:47.000Z,4660
2022-12-16T12:09:03.000Z,4292
2022-12-16T12:10:19.000Z,3956
2022-12-16T12:11:36.000Z,3568
2022-12-16T12:12:52.000Z,3468
2022-12-16T12:14:08.000Z,3372
2022-12-16T12:15:23.000Z,3264
2022-12-16T12:16:39.000Z,3204
2022-12-16T12:17:56.000Z,3112
2022-12-16T12:19:12.000Z,3060
2022-12-16T12:20:28.000Z,3000
2022-12-16T12:21:44.000Z,2964
2022-12-16T12:23:00.000Z,2920
2022-12-16T12:24:16.000Z,2892
2022-12-16T12:25:31.000Z,2860
2022-12-16T12:26:46.000Z,2852
2022-12-16T12:28:01.000Z,2848
2022-12-16T12:29:17.000Z,2812
2022-12-16T12:30:34.000Z,2784
2022-12-16T12:33:06.000Z,2556
2022-12-16T12:34:22.000Z,2552
2022-12-16T12:35:38.000Z,2500
2022-12-16T12:36:55.000Z,2524
2022-12-16T12:38:11.000Z,2664
2022-12-16T12:39:27.000Z,2648
2022-12-16T12:40:43.000Z,2616
2022-12-16T12:41:59.000Z,2592
2022-12-16T12:43:16.000Z,2576
2022-12-16T12:45:47.000Z,2548
2022-12-16T12:47:02.000Z,2540
2022-12-16T12:48:17.000Z,2520
2022-12-16T12:49:34.000Z,2504
2022-12-16T12:50:50.000Z,2500
2022-12-16T12:52:06.000Z,2480
2022-12-16T12:53:22.000Z,2464
2022-12-16T12:54:38.000Z,2444
2022-12-16T12:55:54.000Z,2420
2022-12-16T12:57:10.000Z,2404
2022-12-16T12:58:26.000Z,2376
2022-12-16T12:59:42.000Z,2240
2022-12-16T13:00:57.000Z,2320
2022-12-16T13:02:13.000Z,2204
2022-12-16T13:03:29.000Z,2308
2022-12-16T13:04:45.000Z,2292
2022-12-16T13:06:01.000Z,2268
2022-12-16T13:07:17.000Z,2256
2022-12-16T13:08:34.000Z,2236
2022-12-16T13:11:06.000Z,2212
2022-12-16T13:12:22.000Z,2184
2022-12-16T13:13:38.000Z,2172
2022-12-16T13:14:55.000Z,2156
2022-12-16T13:16:11.000Z,2140
2022-12-16T13:17:27.000Z,2120
2022-12-16T13:18:42.000Z,2104
2022-12-16T13:19:58.000Z,2096
2022-12-16T13:21:15.000Z,2088
2022-12-16T13:22:31.000Z,2072
2022-12-16T13:23:47.000Z,2052
2022-12-16T13:25:03.000Z,2036
2022-12-16T13:26:19.000Z,2024
2022-12-16T13:27:36.000Z,2020
2022-12-16T13:28:51.000Z,2000
2022-12-16T13:30:06.000Z,1992
2022-12-16T13:31:21.000Z,1976
2022-12-16T13:32:37.000Z,1964
2022-12-16T13:33:53.000Z,1948
2022-12-16T13:36:25.000Z,1916
2022-12-16T13:37:41.000Z,1904
2022-12-16T13:38:57.000Z,1888
2022-12-16T13:40:14.000Z,1872
2022-12-16T13:41:30.000Z,1864
2022-12-16T13:42:46.000Z,1852
2022-12-16T13:44:02.000Z,1836
2022-12-16T13:45:18.000Z,1828
2022-12-16T13:46:35.000Z,1816
2022-12-16T13:49:07.000Z,1784
2022-12-16T13:50:22.000Z,1768
2022-12-16T13:51:37.000Z,1744
2022-12-16T13:52:54.000Z,1732
2022-12-16T13:55:26.000Z,1704
2022-12-16T13:56:42.000Z,1684
2022-12-16T13:57:58.000Z,1672
2022-12-16T13:59:15.000Z,1648
2022-12-16T14:00:31.000Z,1628
2022-12-16T14:01:47.000Z,1608
2022-12-16T14:03:03.000Z,1588
2022-12-16T14:04:19.000Z,1572
2022-12-16T14:05:36.000Z,1548
2022-12-16T14:06:52.000Z,1532
2022-12-16T14:08:07.000Z,1508
2022-12-16T14:09:23.000Z,1492
2022-12-16T14:10:39.000Z,1472
2022-12-16T14:11:56.000Z,1448
2022-12-16T14:13:12.000Z,1428
2022-12-16T14:14:28.000Z,1400
2022-12-16T14:15:44.000Z,1380
2022-12-16T14:17:00.000Z,1356
2022-12-16T14:18:16.000Z,1336
2022-12-16T14:19:31.000Z,1312
2022-12-16T14:20:46.000Z,1288
2022-12-16T14:22:01.000Z,1264
2022-12-16T14:23:17.000Z,1240
2022-12-16T14:24:34.000Z,1220
2022-12-16T14:25:50.000Z,1196
2022-12-16T14:27:06.000Z,1168
2022-12-16T14:28:22.000Z,1144
2022-12-16T14:29:38.000Z,1120
2022-12-16T14:30:55.000Z,1096
2022-12-16T14:32:11.000Z,1064
2022-12-16T14:33:27.000Z,1044
2022-12-16T14:34:43.000Z,1020
2022-12-16T14:35:59.000Z,992
2022-12-16T14:37:16.000Z,968
2022-12-16T14:38:31.000Z,940
2022-12-16T14:39:47.000Z,916
2022-12-16T14:41:03.000Z,884
2022-12-16T14:42:19.000Z,632
2022-12-16T14:43:36.000Z,828
2022-12-16T14:44:52.000Z,676
2022-12-16T14:46:08.000Z,772
2022-12-16T14:47:23.000Z,672
2022-12-16T14:48:38.000Z,644
2022-12-16T14:49:54.000Z,640
2022-12-16T14:51:09.000Z,608
2022-12-16T14:52:25.000Z,596
2022-12-16T14:53:41.000Z,612
2022-12-16T14:54:58.003Z,580
2022-12-16T14:56:14.000Z,552
2022-12-16T14:57:30.000Z,528
2022-12-16T14:58:46.000Z,504
2022-12-16T15:00:02.000Z,476
2022-12-16T15:01:18.000Z,448
2022-12-16T15:02:35.000Z,428
2022-12-16T15:05:07.000Z,376
2022-12-16T15:06:23.000Z,348
2022-12-16T15:07:38.000Z,328
2022-12-16T15:08:55.000Z,304
2022-12-16T15:10:11.000Z,284
2022-12-16T15:11:27.000Z,264
2022-12-16T15:12:43.000Z,244
2022-12-16T15:13:59.000Z,220
2022-12-16T15:15:16.000Z,204
2022-12-16T15:16:32.000Z,184
2022-12-16T15:17:48.000Z,168
2022-12-16T15:19:03.000Z,152
2022-12-16T15:20:18.000Z,136
2022-12-16T15:21:34.000Z,124
2022-12-16T15:22:49.000Z,112
2022-12-16T15:24:05.000Z,100
2022-12-16T15:25:21.000Z,88
2022-12-16T15:26:37.000Z,76
2022-12-16T15:27:54.000Z,68
2022-12-16T15:29:10.000Z,60
2022-12-16T15:30:26.000Z,48
2022-12-16T15:31:42.000Z,44
2022-12-16T15:32:58.000Z,36
2022-12-16T15:34:15.000Z,36
2022-12-16T15:35:31.000Z,28
2022-12-16T15:36:47.000Z,24
2022-12-16T15:38:03.000Z,20
2022-12-16T15:39:18.000Z,16
2022-12-16T15:40:35.000Z,16
2022-12-16T15:41:51.000Z,12
2022-12-16T15:43:07.000Z,12
2022-12-16T15:44:23.000Z,8
2022-12-16T15:45:39.000Z,4
2022-12-16T15:46:56.000Z,4
2022-12-16T15:48:11.000Z,4
2022-12-16T15:49:26.000Z,4
2022-12-16T15:50:41.000Z,4
2022-12-16T15:51:56.000Z,4
2022-12-16T15:53:13.000Z,0
2022-12-16T15:55:45.000Z,4
2022-12-16T15:57:01.000Z,4
2022-12-16T15:58:17.000Z,0
2022-12-16T15:59:34.000Z,0
2022-12-16T16:00:50.000Z,0
2022-12-16T16:02:06.000Z,0
2022-12-16T16:03:22.000Z,0
2022-12-16T16:04:38.000Z,0
2022-12-16T16:05:55.000Z,0
2022-12-16T16:08:27.000Z,0
2022-12-16T16:09:42.000Z,0
2022-12-16T16:10:57.000Z,0
2022-12-16T16:12:14.000Z,0
2022-12-16T16:13:30.000Z,0
2022-12-16T16:14:46.000Z,0
2022-12-16T16:16:02.000Z,0
2022-12-16T16:17:18.000Z,0
2022-12-16T16:18:35.000Z,0
2022-12-16T16:19:51.000Z,0
2022-12-16T16:21:07.000Z,0
2022-12-16T16:22:23.000Z,0
2022-12-16T16:23:38.000Z,0
2022-12-16T16:24:54.000Z,0
2022-12-16T16:26:10.000Z,0
2022-12-16T16:27:26.000Z,0
2022-12-16T16:28:42.000Z,0
2022-12-16T16:29:58.000Z,0
2022-12-16T16:31:15.000Z,0
2022-12-16T16:33:47.000Z,0
2022-12-16T16:35:03.000Z,0
2022-12-16T16:36:19.000Z,0
2022-12-16T16:37:36.000Z,0
2022-12-16T16:38:52.000Z,0
2022-12-16T16:40:08.000Z,0
2022-12-16T16:41:23.000Z,0
2022-12-16T16:42:39.000Z,0
2022-12-16T16:43:56.000Z,0
2022-12-16T16:46:28.000Z,0
2022-12-16T16:47:43.000Z,0
2022-12-16T16:48:59.000Z,0
2022-12-16T16:50:16.000Z,0
2022-12-16T16:51:31.000Z,0
2022-12-16T16:52:47.000Z,0
2022-12-16T16:54:03.000Z,0
2022-12-16T16:55:19.000Z,0
2022-12-16T16:56:36.000Z,0
2022-12-16T16:57:52.000Z,0
2022-12-16T16:59:08.000Z,0
2022-12-16T17:00:24.000Z,0
2022-12-16T17:01:39.000Z,0
2022-12-16T17:02:55.000Z,0
2022-12-16T17:04:11.000Z,0
2022-12-16T17:05:27.000Z,0
2022-12-16T17:06:43.000Z,0
2022-12-16T17:07:59.000Z,0
2022-12-16T17:09:16.000Z,0
2022-12-16T17:11:47.000Z,0
2022-12-16T17:13:02.000Z,0
2022-12-16T17:14:18.000Z,0
2022-12-16T17:15:35.000Z,0
2022-12-16T17:16:51.000Z,0
2022-12-16T17:18:07.000Z,0
2022-12-16T17:19:23.000Z,0
2022-12-16T17:20:39.000Z,0
2022-12-16T17:21:55.000Z,0
2022-12-16T17:23:12.000Z,0
2022-12-16T17:24:28.000Z,0
2022-12-16T17:25:44.000Z,0
2022-12-16T17:27:00.000Z,0
2022-12-16T17:28:16.000Z,0
2022-12-16T17:29:32.000Z,0
2022-12-16T17:30:47.000Z,0
2022-12-16T17:32:02.000Z,0
2022-12-16T17:33:17.000Z,0
2022-12-16T17:34:34.000Z,0
2022-12-16T17:37:06.000Z,0
2022-12-16T17:38:22.000Z,0
2022-12-16T17:39:38.000Z,0
2022-12-16T17:40:54.000Z,0
2022-12-16T17:42:11.000Z,0
2022-12-16T17:43:27.000Z,0
2022-12-16T17:44:43.000Z,0
2022-12-16T17:45:59.000Z,0
2022-12-16T17:47:15.000Z,0
2022-12-16T17:49:48.000Z,0
2022-12-16T17:51:03.000Z,0
2022-12-16T17:52:18.000Z,0
2022-12-16T17:53:34.000Z,0
2022-12-16T17:54:51.000Z,0
2022-12-16T17:56:07.000Z,0
2022-12-16T17:57:23.000Z,0
2022-12-16T17:59:55.000Z,0
2022-12-16T18:01:12.000Z,0
2022-12-16T18:02:28.000Z,0
2022-12-16T18:03:44.000Z,0
2022-12-16T18:05:00.000Z,0
2022-12-16T18:06:16.000Z,0
2022-12-16T18:07:33.000Z,0
2022-12-16T18:08:48.000Z,0
2022-12-16T18:10:04.000Z,0
2022-12-16T18:11:20.000Z,0
2022-12-16T18:12:36.000Z,0
2022-12-16T18:13:53.000Z,0
2022-12-16T18:15:09.000Z,0
2022-12-16T18:16:25.000Z,0
2022-12-16T18:17:41.000Z,0
2022-12-16T18:18:56.000Z,0
2022-12-16T18:20:12.000Z,0
2022-12-16T18:21:28.000Z,0
2022-12-16T18:22:44.000Z,0
2022-12-16T18:24:00.000Z,0
2022-12-16T18:25:16.000Z,0
2022-12-16T18:27:49.000Z,0
2022-12-16T18:29:05.000Z,0
2022-12-16T18:30:21.000Z,0
2022-12-16T18:31:37.000Z,0
2022-12-16T18:32:54.000Z,0
2022-12-16T18:34:10.000Z,0
2022-12-16T18:35:26.000Z,0
2022-12-16T18:36:41.000Z,0
2022-12-16T18:37:57.000Z,0
2022-12-16T18:39:14.000Z,0
2022-12-16T18:40:30.000Z,0
2022-12-16T18:41:46.000Z,0
2022-12-16T18:43:02.000Z,0
2022-12-16T18:44:18.000Z,0
2022-12-16T18:45:34.000Z,0
2022-12-16T18:46:51.000Z,0
2022-12-16T18:48:06.000Z,0
2022-12-16T18:49:21.000Z,0